createdAt,value
2022-08-17T00:00:42.598Z,14.70
2022-08-17T00:03:10.856Z,14.67
2022-08-17T00:05:44.722Z,14.90
2022-08-17T00:08:14.734Z,14.97
2022-08-17T00:10:44.131Z,14.40
2022-08-17T00:13:17.393Z,14.17
2022-08-17T00:15:45.923Z,15.53
2022-08-17T00:19:01.269Z,15.27
2022-08-17T00:21:10.346Z,14.47
2022-08-17T00:23:46.219Z,15.40
2022-08-17T00:26:44.145Z,14.70
2022-08-17T00:29:08.067Z,14.30
2022-08-17T00:31:37.239Z,15.30
2022-08-17T00:34:06.572Z,14.40
2022-08-17T00:36:36.307Z,14.90
2022-08-17T00:39:04.711Z,14.73
2022-08-17T00:41:35.739Z,14.97
2022-08-17T00:44:06.548Z,15.40
2022-08-17T00:46:41.956Z,15.70
2022-08-17T00:49:19.355Z,16.70
2022-08-17T00:51:53.790Z,17.23
2022-08-17T00:54:26.340Z,16.13
2022-08-17T00:56:57.947Z,17.33
2022-08-17T00:59:31.906Z,16.43
2022-08-17T01:02:00.880Z,16.10
2022-08-17T01:04:31.069Z,18.30
2022-08-17T01:07:04.612Z,17.20
2022-08-17T01:09:34.073Z,16.63
2022-08-17T01:12:02.384Z,16.90
2022-08-17T01:14:30.672Z,18.13
2022-08-17T01:17:00.235Z,18.03
2022-08-17T01:19:34.285Z,17.20
2022-08-17T01:22:09.116Z,17.97
2022-08-17T01:24:41.925Z,17.57
2022-08-17T01:27:13.391Z,18.53
2022-08-17T01:29:46.304Z,17.27
2022-08-17T01:32:14.729Z,16.97
2022-08-17T01:34:49.483Z,17.13
2022-08-17T01:37:20.878Z,17.77
2022-08-17T01:39:55.008Z,18.67
2022-08-17T01:42:30.596Z,19.97
2022-08-17T01:45:04.409Z,18.57
2022-08-17T01:47:32.984Z,19.27
2022-08-17T01:50:10.812Z,19.10
2022-08-17T01:52:39.579Z,19.77
2022-08-17T01:55:11.012Z,19.77
2022-08-17T01:57:39.271Z,19.80
2022-08-17T02:00:11.128Z,21.30
2022-08-17T02:02:39.501Z,21.30
2022-08-17T02:05:09.031Z,21.20
2022-08-17T02:07:59.785Z,20.20
2022-08-17T02:10:34.247Z,21.97
2022-08-17T02:13:04.210Z,20.77
2022-08-17T02:15:34.635Z,20.17
2022-08-17T02:18:03.306Z,20.83
2022-08-17T02:20:41.636Z,18.93
2022-08-17T02:23:12.920Z,19.93
2022-08-17T02:25:47.696Z,20.30
2022-08-17T02:28:16.231Z,21.40
2022-08-17T02:30:59.406Z,21.53
2022-08-17T02:33:43.285Z,22.00
2022-08-17T02:36:13.954Z,21.17
2022-08-17T02:38:43.424Z,20.97
2022-08-17T02:41:13.446Z,20.50
2022-08-17T02:43:41.921Z,21.67
2022-08-17T02:46:12.730Z,22.17
2022-08-17T02:48:41.070Z,20.47
2022-08-17T02:51:09.362Z,21.40
2022-08-17T02:53:37.710Z,20.53
2022-08-17T02:56:06.221Z,20.23
2022-08-17T02:58:36.325Z,19.70
2022-08-17T03:01:05.731Z,21.00
2022-08-17T03:03:34.575Z,20.87
2022-08-17T03:06:03.324Z,20.03
2022-08-17T03:08:32.601Z,19.13
2022-08-17T03:11:00.935Z,18.43
2022-08-17T03:13:30.808Z,20.87
2022-08-17T03:16:00.589Z,21.17
2022-08-17T03:18:29.053Z,20.53
2022-08-17T03:21:00.679Z,22.07
2022-08-17T03:23:29.915Z,21.87
2022-08-17T03:26:00.072Z,21.40
2022-08-17T03:28:29.415Z,21.13
2022-08-17T03:30:57.753Z,20.73
2022-08-17T03:33:27.532Z,21.70
2022-08-17T03:35:55.760Z,22.43
2022-08-17T03:38:24.249Z,22.53
2022-08-17T03:40:57.632Z,22.60
2022-08-17T03:43:29.960Z,21.47
2022-08-17T03:46:27.053Z,21.87
2022-08-17T03:49:23.796Z,22.00
2022-08-17T03:52:09.475Z,22.83
2022-08-17T03:54:55.840Z,22.43
2022-08-17T03:57:24.679Z,23.07
2022-08-17T03:59:53.369Z,23.13
2022-08-17T04:02:24.670Z,22.70
2022-08-17T04:04:54.751Z,22.83
2022-08-17T04:07:27.479Z,24.07
2022-08-17T04:09:57.939Z,23.47
2022-08-17T04:12:30.727Z,22.43
2022-08-17T04:14:59.357Z,23.43
2022-08-17T04:17:29.789Z,22.87
2022-08-17T04:19:59.413Z,23.53
2022-08-17T04:22:30.008Z,21.20
2022-08-17T04:25:03.805Z,22.53
2022-08-17T04:27:32.042Z,21.67
2022-08-17T04:30:00.386Z,21.73
2022-08-17T04:33:00.786Z,21.23
2022-08-17T04:35:22.407Z,21.17
2022-08-17T04:37:51.178Z,21.47
2022-08-17T04:40:34.921Z,20.50
2022-08-17T04:43:05.417Z,19.63
2022-08-17T04:45:33.753Z,20.73
2022-08-17T04:48:02.289Z,20.60
2022-08-17T04:50:31.908Z,20.30
2022-08-17T04:53:00.897Z,19.93
2022-08-17T04:55:29.740Z,18.80
2022-08-17T04:57:58.073Z,19.63
2022-08-17T05:00:26.910Z,19.27
2022-08-17T05:02:57.085Z,19.07
2022-08-17T05:05:28.160Z,18.87
2022-08-17T05:08:00.684Z,18.03
2022-08-17T05:10:33.046Z,18.27
2022-08-17T05:13:02.598Z,17.77
2022-08-17T05:15:33.137Z,17.70
2022-08-17T05:18:05.023Z,18.30
2022-08-17T05:20:33.828Z,17.63
2022-08-17T05:23:07.144Z,17.40
2022-08-17T05:25:38.787Z,18.50
2022-08-17T05:28:07.908Z,18.00
2022-08-17T05:30:38.037Z,17.98
2022-08-17T05:33:08.400Z,16.90
2022-08-17T05:35:39.608Z,17.73
2022-08-17T05:38:09.505Z,15.93
2022-08-17T05:40:38.327Z,16.90
2022-08-17T05:43:09.645Z,17.03
2022-08-17T05:45:56.173Z,16.00
2022-08-17T05:48:35.824Z,17.63
2022-08-17T05:51:25.675Z,16.47
2022-08-17T05:54:04.206Z,16.80
2022-08-17T05:56:52.874Z,16.73
2022-08-17T05:59:30.579Z,15.48
2022-08-17T06:02:12.627Z,15.88
2022-08-17T06:04:58.899Z,16.30
2022-08-17T06:07:33.525Z,14.48
2022-08-17T06:10:12.215Z,15.35
2022-08-17T06:12:47.346Z,14.65
2022-08-17T06:15:26.166Z,13.73
2022-08-17T06:17:58.794Z,13.20
2022-08-17T06:20:31.618Z,12.60
2022-08-17T06:23:05.978Z,12.88
2022-08-17T06:25:44.068Z,12.07
2022-08-17T06:28:16.263Z,10.70
2022-08-17T06:30:59.824Z,11.80
2022-08-17T06:33:34.374Z,12.02
2022-08-17T06:36:11.435Z,11.60
2022-08-17T06:38:53.254Z,11.07
2022-08-17T06:41:32.567Z,11.10
2022-08-17T06:44:43.551Z,10.80
2022-08-17T06:47:09.005Z,10.50
2022-08-17T06:49:44.335Z,10.88
2022-08-17T06:52:42.173Z,10.55
2022-08-17T06:55:18.703Z,10.27
2022-08-17T06:57:52.079Z,9.32
2022-08-17T07:00:23.894Z,10.32
2022-08-17T07:03:03.419Z,10.23
2022-08-17T07:05:36.665Z,10.13
2022-08-17T07:08:32.888Z,9.25
2022-08-17T07:11:08.973Z,9.65
2022-08-17T07:13:51.087Z,9.75
2022-08-17T07:16:25.470Z,10.10
2022-08-17T07:18:56.886Z,9.48
2022-08-17T07:21:39.432Z,10.18
2022-08-17T07:24:29.852Z,10.27
2022-08-17T07:27:12.949Z,9.13
2022-08-17T07:29:46.987Z,9.20
2022-08-17T07:32:18.667Z,9.60
2022-08-17T07:35:15.328Z,8.90
2022-08-17T07:37:46.056Z,8.98
2022-08-17T07:40:28.113Z,8.50
2022-08-17T07:43:23.250Z,7.75
2022-08-17T07:46:35.285Z,7.22
2022-08-17T07:49:35.408Z,7.20
2022-08-17T07:52:24.140Z,7.28
2022-08-17T07:54:56.145Z,6.82
2022-08-17T07:57:37.611Z,7.00
2022-08-17T08:00:26.667Z,6.88
2022-08-17T08:03:16.033Z,6.88
2022-08-17T08:05:57.534Z,6.57
2022-08-17T08:08:34.249Z,7.03
2022-08-17T08:11:09.231Z,6.93
2022-08-17T08:13:42.782Z,6.90
2022-08-17T08:16:22.701Z,6.47
2022-08-17T08:18:57.416Z,6.53
2022-08-17T08:21:41.803Z,6.45
2022-08-17T08:24:30.941Z,6.07
2022-08-17T08:27:16.002Z,7.03
2022-08-17T08:29:55.231Z,6.45
2022-08-17T08:32:37.266Z,6.88
2022-08-17T08:35:10.270Z,6.35
2022-08-17T08:37:48.248Z,6.05
2022-08-17T08:40:34.087Z,6.20
2022-08-17T08:43:11.658Z,6.60
2022-08-17T08:45:48.181Z,6.30
2022-08-17T08:48:52.755Z,6.38
2022-08-17T08:51:32.622Z,6.20
2022-08-17T08:54:12.376Z,6.20
2022-08-17T08:57:19.244Z,5.63
2022-08-17T08:59:44.256Z,5.43
2022-08-17T09:02:25.276Z,5.18
2022-08-17T09:05:14.338Z,5.25
2022-08-17T09:07:54.681Z,5.68
2022-08-17T09:10:29.924Z,6.03
2022-08-17T09:13:10.275Z,6.00
2022-08-17T09:15:44.322Z,6.03
2022-08-17T09:19:00.389Z,5.20
2022-08-17T09:21:15.050Z,5.15
2022-08-17T09:23:59.863Z,5.38
2022-08-17T09:26:32.759Z,4.70
2022-08-17T09:29:04.440Z,4.35
2022-08-17T09:31:35.590Z,4.82
2022-08-17T09:34:21.230Z,4.50
2022-08-17T09:37:01.260Z,4.70
2022-08-17T09:39:35.791Z,5.32
2022-08-17T09:42:11.963Z,4.63
2022-08-17T09:44:43.874Z,5.00
2022-08-17T09:47:17.324Z,4.80
2022-08-17T09:49:50.019Z,4.88
2022-08-17T09:52:25.480Z,5.25
2022-08-17T09:54:58.196Z,4.80
2022-08-17T09:57:39.261Z,4.95
2022-08-17T10:00:25.209Z,4.97
2022-08-17T10:03:21.091Z,4.50
2022-08-17T10:05:56.814Z,4.32
2022-08-17T10:08:37.422Z,4.65
2022-08-17T10:11:19.548Z,4.75
2022-08-17T10:13:59.528Z,5.00
2022-08-17T10:16:37.351Z,4.93
2022-08-17T10:19:14.915Z,4.80
2022-08-17T10:22:32.446Z,4.97
2022-08-17T10:25:22.696Z,4.60
2022-08-17T10:27:58.652Z,4.50
2022-08-17T10:30:29.436Z,4.97
2022-08-17T10:33:01.595Z,5.25
2022-08-17T10:35:34.315Z,5.28
2022-08-17T10:38:24.560Z,4.63
2022-08-17T10:40:58.407Z,4.82
2022-08-17T10:43:44.763Z,5.30
2022-08-17T10:46:52.315Z,4.75
2022-08-17T10:49:39.000Z,5.13
2022-08-17T10:52:49.308Z,5.22
2022-08-17T10:55:20.383Z,5.25
2022-08-17T10:57:50.784Z,5.40
2022-08-17T11:01:12.663Z,5.68
2022-08-17T11:03:55.186Z,5.10
2022-08-17T11:06:37.318Z,5.32
2022-08-17T11:09:32.599Z,4.88
2022-08-17T11:12:15.541Z,4.53
2022-08-17T11:15:14.091Z,4.93
2022-08-17T11:18:16.162Z,4.80
2022-08-17T11:21:10.685Z,4.60
2022-08-17T11:23:57.907Z,4.53
2022-08-17T11:26:30.570Z,4.90
2022-08-17T11:29:03.111Z,4.53
2022-08-17T11:31:38.417Z,4.45
2022-08-17T11:34:15.192Z,4.97
2022-08-17T11:37:02.762Z,4.28
2022-08-17T11:39:55.173Z,4.43
2022-08-17T11:42:36.306Z,4.07
2022-08-17T11:45:32.123Z,4.72
2022-08-17T11:48:31.523Z,4.43
2022-08-17T11:51:21.950Z,4.55
2022-08-17T11:54:34.669Z,4.40
2022-08-17T11:57:41.877Z,4.20
2022-08-17T12:00:32.235Z,4.32
2022-08-17T12:03:24.925Z,4.13
2022-08-17T12:06:03.584Z,4.45
2022-08-17T12:08:33.960Z,4.60
2022-08-17T12:11:07.766Z,4.65
2022-08-17T12:13:44.103Z,4.82
2022-08-17T12:16:17.459Z,4.65
2022-08-17T12:18:51.651Z,4.47
2022-08-17T12:21:27.593Z,4.40
2022-08-17T12:24:06.542Z,4.90
2022-08-17T12:26:38.319Z,4.68
2022-08-17T12:29:17.881Z,4.63
2022-08-17T12:32:03.509Z,4.80
2022-08-17T12:34:38.063Z,4.65
2022-08-17T12:37:14.606Z,4.60
2022-08-17T12:39:54.659Z,5.13
2022-08-17T12:42:27.066Z,4.70
2022-08-17T12:44:55.407Z,4.70
2022-08-17T12:47:23.645Z,5.15
2022-08-17T12:49:53.366Z,4.80
2022-08-17T12:52:25.387Z,5.22
2022-08-17T12:54:59.469Z,4.90
2022-08-17T12:57:33.982Z,5.45
2022-08-17T13:00:09.900Z,4.93
2022-08-17T13:02:45.306Z,5.20
2022-08-17T13:05:23.131Z,5.20
2022-08-17T13:07:53.159Z,5.85
2022-08-17T13:10:31.674Z,5.72
2022-08-17T13:13:04.893Z,5.20
2022-08-17T13:15:38.469Z,4.82
2022-08-17T13:18:45.763Z,5.10
2022-08-17T13:21:26.799Z,4.85
2022-08-17T13:24:01.494Z,5.10
2022-08-17T13:26:33.620Z,5.05
2022-08-17T13:29:07.658Z,5.05
2022-08-17T13:31:51.956Z,4.90
2022-08-17T13:34:34.384Z,5.07
2022-08-17T13:37:26.372Z,4.90
2022-08-17T13:39:57.401Z,5.30
2022-08-17T13:42:50.349Z,5.50
2022-08-17T13:45:52.253Z,4.95
2022-08-17T13:48:27.747Z,5.00
2022-08-17T13:51:16.198Z,4.82
2022-08-17T13:54:01.774Z,4.70
2022-08-17T13:56:52.758Z,5.07
2022-08-17T13:59:53.224Z,5.55
2022-08-17T14:02:21.617Z,5.40
2022-08-17T14:04:50.380Z,5.72
2022-08-17T14:07:29.600Z,6.30
2022-08-17T14:10:01.379Z,5.63
2022-08-17T14:12:32.930Z,5.38
2022-08-17T14:15:02.111Z,5.20
2022-08-17T14:17:36.513Z,5.18
2022-08-17T14:20:09.390Z,5.32
2022-08-17T14:22:40.886Z,4.85
2022-08-17T14:25:10.353Z,5.47
2022-08-17T14:27:47.097Z,5.18
2022-08-17T14:30:24.405Z,5.53
2022-08-17T14:32:55.083Z,5.47
2022-08-17T14:35:24.972Z,5.03
2022-08-17T14:37:53.898Z,5.65
2022-08-17T14:40:25.038Z,5.35
2022-08-17T14:42:55.440Z,5.35
2022-08-17T14:45:32.003Z,5.47
2022-08-17T14:48:06.319Z,5.68
2022-08-17T14:50:35.678Z,5.32
2022-08-17T14:53:06.057Z,5.30
2022-08-17T14:55:35.471Z,5.18
2022-08-17T14:58:05.059Z,5.75
2022-08-17T15:00:34.091Z,4.75
2022-08-17T15:03:03.988Z,5.15
2022-08-17T15:05:36.652Z,5.07
2022-08-17T15:08:06.360Z,4.80
2022-08-17T15:10:34.820Z,4.90
2022-08-17T15:13:03.322Z,5.60
2022-08-17T15:15:32.204Z,6.57
2022-08-17T15:18:01.016Z,6.03
2022-08-17T15:20:31.592Z,5.53
2022-08-17T15:23:00.288Z,5.35
2022-08-17T15:25:31.832Z,5.10
2022-08-17T15:28:01.545Z,5.75
2022-08-17T15:30:32.170Z,5.13
2022-08-17T15:33:01.849Z,5.60
2022-08-17T15:35:33.594Z,5.38
2022-08-17T15:38:10.171Z,5.78
2022-08-17T15:40:41.600Z,5.00
2022-08-17T15:43:11.853Z,5.53
2022-08-17T15:45:40.876Z,4.82
2022-08-17T15:48:10.134Z,5.45
2022-08-17T15:50:39.873Z,5.22
2022-08-17T15:53:08.176Z,5.68
2022-08-17T15:55:38.392Z,5.53
2022-08-17T15:58:07.130Z,6.07
2022-08-17T16:00:51.596Z,6.05
2022-08-17T16:03:58.422Z,5.85
2022-08-17T16:06:15.631Z,5.25
2022-08-17T16:08:45.431Z,5.50
2022-08-17T16:11:14.577Z,6.28
2022-08-17T16:13:47.368Z,6.18
2022-08-17T16:16:23.568Z,5.97
2022-08-17T16:18:53.634Z,6.28
2022-08-17T16:21:42.362Z,6.53
2022-08-17T16:24:12.709Z,6.43
2022-08-17T16:26:42.003Z,6.50
2022-08-17T16:29:10.978Z,6.40
2022-08-17T16:31:40.077Z,6.32
2022-08-17T16:34:17.744Z,6.80
2022-08-17T16:36:51.867Z,6.43
2022-08-17T16:39:25.051Z,6.65
2022-08-17T16:41:53.339Z,6.80
2022-08-17T16:44:22.600Z,6.35
2022-08-17T16:46:51.445Z,6.88
2022-08-17T16:49:35.749Z,6.28
2022-08-17T16:52:11.248Z,7.35
2022-08-17T16:54:43.740Z,6.93
2022-08-17T16:57:13.089Z,6.75
2022-08-17T16:59:44.905Z,6.50
2022-08-17T17:02:17.527Z,7.40
2022-08-17T17:04:53.096Z,7.18
2022-08-17T17:07:38.556Z,7.38
2022-08-17T17:10:10.351Z,7.85
2022-08-17T17:13:02.530Z,7.28
2022-08-17T17:15:38.073Z,7.18
2022-08-17T17:18:07.728Z,7.38
2022-08-17T17:20:44.023Z,7.72
2022-08-17T17:23:26.133Z,7.35
2022-08-17T17:25:59.192Z,7.53
2022-08-17T17:28:38.299Z,8.23
2022-08-17T17:31:12.946Z,7.65
2022-08-17T17:33:47.815Z,7.43
2022-08-17T17:36:25.460Z,8.27
2022-08-17T17:39:00.071Z,8.50
2022-08-17T17:41:34.271Z,7.70
2022-08-17T17:44:07.543Z,8.57
2022-08-17T17:46:39.495Z,8.02
2022-08-17T17:49:10.172Z,8.70
2022-08-17T17:52:06.662Z,7.80
2022-08-17T17:54:58.348Z,8.88
2022-08-17T17:57:37.063Z,8.55
2022-08-17T18:00:13.499Z,8.43
2022-08-17T18:02:52.584Z,8.43
2022-08-17T18:06:01.253Z,8.63
2022-08-17T18:08:49.818Z,8.60
2022-08-17T18:11:43.675Z,8.65
2022-08-17T18:14:23.804Z,9.00
2022-08-17T18:16:56.874Z,9.15
2022-08-17T18:19:27.356Z,9.55
2022-08-17T18:22:05.146Z,10.10
2022-08-17T18:24:37.841Z,9.63
2022-08-17T18:27:21.503Z,10.88
2022-08-17T18:29:50.804Z,11.55
2022-08-17T18:32:34.692Z,10.48
2022-08-17T18:35:27.950Z,10.43
2022-08-17T18:37:58.956Z,9.48
2022-08-17T18:40:37.800Z,9.93
2022-08-17T18:43:14.292Z,10.50
2022-08-17T18:45:47.190Z,10.75
2022-08-17T18:48:25.806Z,11.30
2022-08-17T18:50:56.361Z,10.30
2022-08-17T18:53:38.484Z,10.38
2022-08-17T18:56:27.432Z,9.90
2022-08-17T18:59:21.372Z,9.93
2022-08-17T19:02:15.501Z,10.30
2022-08-17T19:05:00.972Z,10.13
2022-08-17T19:07:31.918Z,10.98
2022-08-17T19:10:12.341Z,10.00
2022-08-17T19:12:46.137Z,10.05
2022-08-17T19:15:21.724Z,10.43
2022-08-17T19:18:00.504Z,10.73
2022-08-17T19:20:35.404Z,10.35
2022-08-17T19:23:23.847Z,10.40
2022-08-17T19:25:55.220Z,10.85
2022-08-17T19:28:29.360Z,11.23
2022-08-17T19:31:02.003Z,10.82
2022-08-17T19:33:32.412Z,11.68
2022-08-17T19:36:07.025Z,12.65
2022-08-17T19:38:46.234Z,14.05
2022-08-17T19:41:25.397Z,13.18
2022-08-17T19:44:16.563Z,13.30
2022-08-17T19:46:58.413Z,12.38
2022-08-17T19:49:41.415Z,13.60
2022-08-17T19:52:41.306Z,12.70
2022-08-17T19:55:20.424Z,11.23
2022-08-17T19:58:00.687Z,12.80
2022-08-17T20:00:31.177Z,11.60
2022-08-17T20:03:09.307Z,11.88
2022-08-17T20:06:01.467Z,13.23
2022-08-17T20:08:33.415Z,12.55
2022-08-17T20:11:05.619Z,13.32
2022-08-17T20:13:40.239Z,13.30
2022-08-17T20:16:10.087Z,12.38
2022-08-17T20:18:50.651Z,12.75
2022-08-17T20:21:24.264Z,12.65
2022-08-17T20:23:56.846Z,12.90
2022-08-17T20:26:28.191Z,13.60
2022-08-17T20:29:36.908Z,13.35
2022-08-17T20:32:25.539Z,13.18
2022-08-17T20:35:19.460Z,14.00
2022-08-17T20:37:54.901Z,13.63
2022-08-17T20:40:30.427Z,13.10
2022-08-17T20:42:59.621Z,14.32
2022-08-17T20:45:47.485Z,14.20
2022-08-17T20:48:36.777Z,14.13
2022-08-17T20:51:24.383Z,13.52
2022-08-17T20:54:34.343Z,12.73
2022-08-17T20:57:03.195Z,14.05
2022-08-17T21:00:01.292Z,13.48
2022-08-17T21:02:30.344Z,13.63
2022-08-17T21:05:30.335Z,14.55
2022-08-17T21:08:12.886Z,14.15
2022-08-17T21:10:43.915Z,14.60
2022-08-17T21:13:38.611Z,14.27
2022-08-17T21:16:23.429Z,15.00
2022-08-17T21:18:59.339Z,13.88
2022-08-17T21:21:38.389Z,13.18
2022-08-17T21:24:25.748Z,13.82
2022-08-17T21:27:00.799Z,14.45
2022-08-17T21:29:33.944Z,14.52
2022-08-17T21:32:23.709Z,13.07
2022-08-17T21:35:31.121Z,13.25
2022-08-17T21:38:05.180Z,13.60
2022-08-17T21:40:36.354Z,13.82
2022-08-17T21:43:18.732Z,14.30
2022-08-17T21:45:56.751Z,14.30
2022-08-17T21:48:27.263Z,14.27
2022-08-17T21:51:03.681Z,14.60
2022-08-17T21:53:39.410Z,14.35
2022-08-17T21:56:11.525Z,13.98
2022-08-17T21:58:46.604Z,14.52
2022-08-17T22:01:26.462Z,14.55
2022-08-17T22:04:05.029Z,14.90
2022-08-17T22:06:38.115Z,14.73
2022-08-17T22:09:17.361Z,14.63
2022-08-17T22:11:57.295Z,15.18
2022-08-17T22:14:53.044Z,14.70
2022-08-17T22:17:19.785Z,15.18
2022-08-17T22:19:50.264Z,14.95
2022-08-17T22:22:26.887Z,15.77
2022-08-17T22:24:57.514Z,15.75
2022-08-17T22:27:56.315Z,15.68
2022-08-17T22:30:34.777Z,15.93
2022-08-17T22:33:35.532Z,15.38
2022-08-17T22:36:29.519Z,15.68
2022-08-17T22:38:59.524Z,15.20
2022-08-17T22:41:54.359Z,15.30
2022-08-17T22:44:30.169Z,15.38
2022-08-17T22:47:06.678Z,15.68
2022-08-17T22:49:54.709Z,15.95
2022-08-17T22:52:34.975Z,15.82
2022-08-17T22:55:25.499Z,14.82
2022-08-17T22:58:11.574Z,15.25
2022-08-17T23:00:42.223Z,16.50
2022-08-17T23:03:18.491Z,16.23
2022-08-17T23:06:03.407Z,16.60
2022-08-17T23:08:32.609Z,16.63
2022-08-17T23:11:01.143Z,16.20
2022-08-17T23:13:33.394Z,17.80
2022-08-17T23:16:02.441Z,17.42
2022-08-17T23:18:31.078Z,17.33
2022-08-17T23:21:01.272Z,17.30
2022-08-17T23:23:31.589Z,17.17
2022-08-17T23:25:59.855Z,16.90
2022-08-17T23:28:28.571Z,16.98
2022-08-17T23:30:56.885Z,17.80
2022-08-17T23:33:31.015Z,17.05
2022-08-17T23:36:00.932Z,17.02
2022-08-17T23:38:31.771Z,17.92
2022-08-17T23:41:02.522Z,18.70
2022-08-17T23:43:31.612Z,17.23
2022-08-17T23:46:01.002Z,17.87
2022-08-17T23:48:35.699Z,17.67
2022-08-17T23:51:09.851Z,17.60
2022-08-17T23:53:41.927Z,17.47
2022-08-17T23:56:11.836Z,18.10
2022-08-17T23:58:42.225Z,19.08
